Terminal Aerodrome Forecast
Issued by NWS Pueblo, CO

Home | Current Version | Previous Version | Text Only | Print | Product List | Glossary On
Versions: 1 2 3 4 5 6 7 8 9 10 11 12 13 14 15 16 17 18 19 20 21 22 23 24 25 26 27 28 29 30 31 32 33 34 35 36 37
000
FTUS45 KPUB 030535
TAFCOS
TAF
KCOS 030535Z 0306/0406 VRB06KT P6SM SKC
     FM031000 VRB05KT P6SM SCT010
     FM031600 17007KT P6SM FEW110
     FM031800 18013KT P6SM SCT100 SCT200
     FM032000 19014G24KT P6SM SCT100 SCT150
     FM040200 29009KT P6SM SCT100 SCT150=

USA.gov is the U.S. government's official web portal to all federal, state and local government web resources and services.